• Join FlightAware (Why Join?)
  • Login
  • US Flag 
05:12PM EDT


 

Airport Tracker/Info


-or-


 

Live Flight TrackerFlight Track Log ✈ AZU4314 ✈ 24-Oct-2013 ✈ SBKP / VCP - SBSR / SJP

Flight Track Log - Related Links

Times and Time Zones

All times are in EDT time to prevent confusion due to time zone crossing. See the AZU4314 flight status page for this flight to view local times or setup timezone preferences in your user account.

Time Position Orientation Groundspeed Altitude Reporting Facility
EDT Latitude Longitude Course Direction KTS MPH feet Rate Location/Type
01:53PM -23.0130 -47.2180 238° Southwest 184 212 3,600  Level FlightAware
01:54PM -23.0320 -47.2510 238° Southwest 195 224 4,100 840 Climbing FlightAware
01:54PM -23.0540 -47.2880 237° Southwest 196 226 4,800 900 Climbing FlightAware
01:55PM -23.0630 -47.3200 253° West 192 221 5,300 720 Climbing FlightAware
01:55PM -23.0680 -47.3370 252° West 194 223 5,600 780 Climbing FlightAware
01:56PM -23.0800 -47.3750 251° West 194 223 6,200 900 Climbing FlightAware
01:57PM -23.0900 -47.4080 252° West 190 219 6,800 960 Climbing FlightAware
01:57PM -23.0970 -47.4360 255° West 190 219 7,300 900 Climbing FlightAware
01:58PM -23.1060 -47.4670 252° West 189 217 7,800 660 Climbing FlightAware
01:58PM -23.1160 -47.4990 251° West 200 230 8,100 120 Climbing FlightAware
01:59PM -23.1230 -47.5360 258° West 222 255 8,000 240 Descending FlightAware
01:59PM -23.1010 -47.5650 310° West 216 249 8,400 900 Climbing FlightAware
02:00PM -23.0710 -47.5920 320° Northwest 204 235 9,000 960 Climbing FlightAware
02:00PM -23.0470 -47.6120 323° Northwest 197 227 9,500 780 Climbing FlightAware
02:02PM -22.9990 -47.6500 324° Northwest 193 222 10,300 600 Climbing FlightAware
02:02PM -22.9790 -47.6630 329° Northwest 193 222 10,500 480 Climbing FlightAware
02:03PM -22.9460 -47.6800 335° Northwest 194 223 10,900 600 Climbing FlightAware
02:03PM -22.9170 -47.6900 342° North 193 222 11,300 660 Climbing FlightAware
02:04PM -22.8960 -47.7020 332° Northwest 195 224 11,600 600 Climbing FlightAware
02:04PM -22.8640 -47.7200 333° Northwest 195 224 12,000 540 Climbing FlightAware
02:05PM -22.8270 -47.7400 334° Northwest 195 224 12,400 540 Climbing FlightAware
02:06PM -22.7950 -47.7580 333° Northwest 195 224 12,800 540 Climbing FlightAware
02:06PM -22.7700 -47.7710 334° Northwest 198 228 13,100 480 Climbing FlightAware
02:07PM -22.7180 -47.7980 334° Northwest 201 231 13,600 480 Climbing FlightAware
02:08PM -22.6900 -47.8120 335° Northwest 201 231 13,900 540 Climbing FlightAware
02:09PM -22.6470 -47.8330 336° Northwest 201 231 14,400 480 Climbing FlightAware
02:09PM -22.6230 -47.8430 339° North 202 232 14,600 420 Climbing FlightAware
02:10PM -22.5910 -47.8530 344° North 201 231 14,900 540 Climbing FlightAware
02:10PM -22.5620 -47.8630 342° North 201 231 15,200 480 Climbing FlightAware
02:11PM -22.5260 -47.8750 343° North 202 232 15,500 480 Climbing FlightAware
02:12PM -22.4980 -47.8850 342° North 201 231 15,800 420 Climbing FlightAware
02:12PM -22.4620 -47.8970 343° North 204 235 16,000 120 Climbing FlightAware
02:13PM -22.4220 -47.9110 342° North 222 255 16,000  Level FlightAware
02:13PM -22.3890 -47.9220 343° North 233 268 16,000  Level FlightAware
02:14PM -22.3630 -47.9310 342° North 238 274 16,000  Level FlightAware
02:15PM -22.2980 -47.9540 342° North 247 284 16,000  Level FlightAware
02:15PM -22.2630 -47.9660 342° North 251 289 16,000  Level FlightAware
02:16PM -22.2110 -47.9840 342° North 252 290 16,000  Level FlightAware
02:17PM -22.1680 -47.9990 342° North 254 292 16,000  Level FlightAware
02:17PM -22.1190 -48.0160 342° North 253 291 16,000  Level FlightAware
02:18PM -22.0510 -48.0400 342° North 253 291 16,000  Level FlightAware
02:19PM -22.0150 -48.0520 343° North 253 291 16,000  Level FlightAware
02:20PM -21.9770 -48.0650 342° North 254 292 16,000  Level FlightAware
02:20PM -21.9200 -48.0850 342° North 253 291 16,000  Level FlightAware
02:21PM -21.8840 -48.1250 314° West 256 295 16,000  Level FlightAware
02:22PM -21.8540 -48.1650 309° West 257 296 16,000  Level FlightAware
02:23PM -21.8190 -48.2070 312° West 257 296 16,000  Level FlightAware
02:23PM -21.7950 -48.2360 312° West 257 296 16,000  Level FlightAware
02:24PM -21.7640 -48.2730 312° West 257 296 16,000  Level FlightAware
02:25PM -21.7120 -48.3360 312° West 259 298 16,000  Level FlightAware
02:25PM -21.6830 -48.3710 312° West 259 298 16,000  Level FlightAware
02:26PM -21.6540 -48.4060 312° West 260 299 16,000  Level FlightAware
02:27PM -21.6220 -48.4450 311° West 259 298 16,000  Level FlightAware
02:27PM -21.5840 -48.4890 313° West 259 298 16,000  Level FlightAware
02:28PM -21.5550 -48.5240 312° West 261 300 16,000  Level FlightAware
02:29PM -21.5290 -48.5550 312° West 262 302 16,000  Level FlightAware
02:29PM -21.4890 -48.6040 311° West 262 302 16,000  Level FlightAware
02:30PM -21.4370 -48.6660 312° West 263 303 16,000  Level FlightAware
02:32PM -21.3850 -48.7310 311° West 265 305 16,000  Level FlightAware
02:32PM -21.3660 -48.7690 298° West 265 305 16,000  Level FlightAware
02:33PM -21.3440 -48.8180 296° West 264 304 16,000  Level FlightAware
02:33PM -21.3220 -48.8640 297° West 264 304 16,000  Level FlightAware
02:34PM -21.3020 -48.9060 297° West 264 304 16,000  Level FlightAware
02:35PM -21.2780 -48.9550 298° West 264 304 16,000 -300 Level FlightAware
02:35PM -21.2550 -49.0030 297° West 274 315 15,600 -1,020 Descending FlightAware
02:36PM -21.2390 -49.0370 297° West 282 325 14,900 -1,620 Descending FlightAware
02:36PM -21.2170 -49.0830 297° West 292 336 13,900 -1,680 Descending FlightAware
02:37PM -21.1950 -49.1290 297° West 296 341 12,900 -1,740 Descending FlightAware
02:38PM -21.1490 -49.2250 297° West 286 329 10,800 -1,740 Descending FlightAware
02:39PM -21.1330 -49.2580 297° West 281 323 10,000 -1,740 Descending FlightAware
02:39PM -21.1090 -49.3060 298° West 275 316 8,900 -1,680 Descending FlightAware
02:40PM -21.1010 -49.3250 294° West 274 315 8,400 -1,500 Descending FlightAware
02:40PM -21.0800 -49.3680 298° West 270 311 7,400 -1,560 Descending FlightAware
02:41PM -21.0560 -49.4170 298° West 260 299 6,300 -1,800 Descending FlightAware
02:42PM -21.0370 -49.4570 297° West 255 293 5,300 -1,440 Descending FlightAware
02:42PM -21.0260 -49.4800 297° West 245 282 5,000 -360 Descending FlightAware
02:42PM -21.0140 -49.5060 296° West 245 282 5,000 -480 Level FlightAware
02:46PM -20.8851 -49.4410 25° Northeast  Level Estimated
02:46PM -20.8790 -49.4890 25° Northeast 3,500  Level FlightAware
02:46PM -20.8640 -49.4690 51° Northeast 127 146 3,100 -720 Descending FlightAware
02:47PM -20.8530 -49.4550 50° Northeast 120 138 2,700 -660 Descending FlightAware
02:47PM -20.8410 -49.4390 51° Northeast 125 144 2,400 -600 Descending FlightAware
02:48PM -20.8290 -49.4230 51° Northeast 125 144 2,100 -660 Descending FlightAware
02:48PM -20.8200 -49.4110 51° Northeast 124 143 1,800 -780 Descending FlightAware
02:49PM -20.8140 -49.4030 51° Northeast 121 139 -2,700 Descending FlightAware
02:49PM -20.8220 -49.3920 128° Southeast 121 139  Level FlightAware
02:53PM -20.8166 -49.4065 292° West  Level Estimated
02:54PM -20.8166 -49.4065 343° North  Level Estimated
02:55PM -20.8166 -49.4065 343° North  Level Estimated
02:56PM -20.8166 -49.4065 343° North  Level Estimated
02:57PM -20.8166 -49.4065 343° North  Level Estimated
02:58PM -20.8166 -49.4065 343° North  Level Estimated
02:59PM -20.8166 -49.4065 343° North  Level Estimated
03:00PM -20.8166 -49.4065 343° North  Level Estimated
03:01PM -20.8166 -49.4065 343° North  Level Estimated
03:02PM -20.8166 -49.4065 343° North  Level Estimated
03:03PM -20.8166 -49.4065 343° North  Level Estimated
03:04PM -20.8166 -49.4065 343° North  Level Estimated
03:05PM -20.8166 -49.4065 343° North  Level Estimated
03:06PM -20.8166 -49.4065 343° North  Level Estimated
03:07PM -20.8166 -49.4065 343° North  Level Estimated
03:08PM -20.8166 -49.4065 343° North  Level Estimated
03:09PM -20.8166 -49.4065 343° North  Level Estimated
03:10PM -20.8166 -49.4065 343° North  Level Estimated
03:11PM -20.8166 -49.4065 343° North  Level Estimated
03:12PM -20.8166 -49.4065 343° North  Level Estimated
03:13PM -20.8166 -49.4065 343° North  Level Estimated
03:14PM -20.8166 -49.4065 343° North  Level Estimated